• Join FlightAware (Why Join?)
  • Login
  • US Flag 
11:51AM EDT


 

Airport Tracker/Info


-or-


 

Live Flight TrackerFlight Track Log ✈ CES5647 ✈ 04-Oct-2013 ✈ ZSSS / SHA - ZSWY / WUS

Flight Track Log - Related Links

Times and Time Zones

All times are in EDT time to prevent confusion due to time zone crossing. See the CES5647 flight status page for this flight to view local times or setup timezone preferences in your user account.

Time Position Orientation Groundspeed Altitude Reporting Facility
EDT Latitude Longitude Course Direction KTS MPH feet Rate Location/Type
08:10AM 31.2120 121.3310 356° North 154 177 700  Level FlightAware
08:10AM 31.2220 121.3310 360° North 154 177 1,400 2,460 Climbing FlightAware
08:11AM 31.2390 121.3300 357° North 160 184 2,300 1,380 Climbing FlightAware
08:11AM 31.2650 121.3290 358° North 159 183 2,900 1,620 Climbing FlightAware
08:12AM 31.2710 121.3250 330° Northwest 191 220 3,600 2,880 Climbing FlightAware
08:12AM 31.2840 121.3060 309° West 225 259 4,100 1,560 Climbing FlightAware
08:12AM 31.2850 121.2970 277° West 255 293 4,200 1,200 Climbing FlightAware
08:12AM 31.2830 121.2530 267° West 284 327 4,800 720 Climbing FlightAware
08:13AM 31.2790 121.2210 262° West 287 330 4,800  Level FlightAware
08:13AM 31.2730 121.2090 240° Southwest 288 331 4,800  Level FlightAware
08:13AM 31.2530 121.1780 233° Southwest 287 330 4,800 780 Level FlightAware
08:14AM 31.2350 121.1490 234° Southwest 298 343 5,400 3,060 Climbing FlightAware
08:14AM 31.2220 121.1300 231° Southwest 290 334 6,600 4,320 Climbing FlightAware
08:14AM 31.2110 121.1220 212° Southwest 288 331 7,200 3,000 Climbing FlightAware
08:14AM 31.1980 121.1180 195° South 287 330 7,600 1,980 Climbing FlightAware
08:14AM 31.1930 121.1180 180° South 287 330 7,700 2,160 Climbing FlightAware
08:15AM 31.1660 121.1200 176° South 291 335 8,500 2,880 Climbing FlightAware
08:15AM 31.1340 121.1220 177° South 291 335 9,900 1,560 Climbing FlightAware
08:16AM 31.1030 121.1250 175° South 291 335 9,900 1,740 Level FlightAware
08:16AM 31.0640 121.0940 214° Southwest 351 404 11,500 2,880 Climbing FlightAware
08:16AM 31.0570 121.0790 241° Southwest 362 417 11,700 2,400 Climbing FlightAware
08:16AM 31.0480 121.0480 251° West 369 425 12,500 3,180 Climbing FlightAware
08:17AM 31.0310 120.9710 256° West 364 419 14,700 2,880 Climbing FlightAware
08:18AM 31.0170 120.9130 254° West 372 428 15,900 1,020 Climbing FlightAware
08:18AM 31.0010 120.8510 253° West 372 428 15,900  Level FlightAware
08:19AM 30.9870 120.7920 255° West 372 428 15,900  Level FlightAware
08:19AM 30.9720 120.7330 253° West 372 428 15,900  Level FlightAware
08:20AM 30.9570 120.6710 254° West 372 428 15,900  Level FlightAware
08:21AM 30.9420 120.6120 254° West 372 428 15,900 6,600 Level FlightAware
08:21AM 30.9060 120.4710 253° West 411 473 23,500 5,760 Climbing FlightAware
08:22AM 30.8760 120.3800 249° West 411 473 23,600 60 Climbing FlightAware
08:23AM 30.8560 120.3140 251° West 411 473 23,600 1,920 Level FlightAware
08:23AM 30.7400 120.3230 176° South 416 479 25,600 1,920 Climbing FlightAware
08:24AM 30.6850 120.2850 211° Southwest 410 472 25,600  Level FlightAware
08:24AM 30.6300 120.2470 211° Southwest 410 472 25,600  Level FlightAware
08:25AM 30.5800 120.2120 211° Southwest 410 472 25,600  Level FlightAware
08:26AM 30.5290 120.1760 211° Southwest 410 472 25,600  Level FlightAware
08:26AM 30.4780 120.1410 211° Southwest 410 472 25,600  Level FlightAware
08:27AM 30.4280 120.1060 211° Southwest 410 472 25,600  Level FlightAware
08:27AM 30.3780 120.0710 211° Southwest 410 472 25,600  Level FlightAware
08:30AM 30.2359 119.9577 215° Southwest  Level Estimated
08:31AM 30.1702 119.9055 215° Southwest  Level Estimated
08:32AM 30.1046 119.8533 214° Southwest  Level Estimated
08:33AM 30.0389 119.8013 214° Southwest  Level Estimated
08:34AM 29.9732 119.7493 214° Southwest  Level Estimated
08:35AM 29.9075 119.6974 214° Southwest  Level Estimated
08:36AM 29.8417 119.6455 214° Southwest  Level Estimated
08:37AM 29.7760 119.5937 214° Southwest  Level Estimated
08:38AM 29.7102 119.5420 214° Southwest  Level Estimated
08:39AM 29.6444 119.4903 214° Southwest  Level Estimated
08:40AM 29.5786 119.4388 214° Southwest  Level Estimated
08:41AM 29.5127 119.3872 214° Southwest  Level Estimated
08:42AM 29.4469 119.3358 214° Southwest  Level Estimated
08:43AM 29.3810 119.2844 214° Southwest  Level Estimated
08:44AM 29.3151 119.2331 214° Southwest  Level Estimated
08:45AM 29.2492 119.1818 214° Southwest  Level Estimated
08:46AM 29.1832 119.1307 214° Southwest  Level Estimated
08:47AM 29.1173 119.0795 214° Southwest  Level Estimated
08:48AM 29.0513 119.0285 214° Southwest  Level Estimated
08:49AM 28.9853 118.9775 214° Southwest  Level Estimated
08:50AM 28.9236 118.9299 214° Southwest  Level Estimated
08:51AM 28.8619 118.8824 214° Southwest  Level Estimated
08:52AM 28.8002 118.8349 214° Southwest  Level Estimated
08:53AM 28.7385 118.7875 214° Southwest  Level Estimated
08:54AM 28.6767 118.7401 214° Southwest  Level Estimated
08:55AM 28.6150 118.6928 214° Southwest  Level Estimated
08:56AM 28.5532 118.6456 214° Southwest  Level Estimated
08:57AM 28.4914 118.5984 214° Southwest  Level Estimated
08:58AM 28.4296 118.5512 214° Southwest  Level Estimated
08:59AM 28.3677 118.5042 214° Southwest  Level Estimated
09:00AM 28.3059 118.4571 214° Southwest  Level Estimated
09:01AM 28.2440 118.4102 214° Southwest  Level Estimated
09:02AM 28.1654 118.3505 214° Southwest  Level Estimated
09:03AM 28.0867 118.2910 214° Southwest  Level Estimated
09:04AM 28.0080 118.2316 214° Southwest  Level Estimated
09:05AM 27.9293 118.1722 214° Southwest  Level Estimated
09:06AM 27.8506 118.1130 214° Southwest  Level Estimated
09:07AM 27.7718 118.0538 214° Southwest  Level Estimated
09:08AM 27.7019 118.0014 214° Southwest  Level Estimated
09:09AM 27.7019 118.0014 348° North  Level Estimated
09:10AM 27.7019 118.0014 348° North  Level Estimated
09:11AM 27.7019 118.0014 348° North  Level Estimated
09:12AM 27.7019 118.0014 348° North  Level Estimated
09:13AM 27.7019 118.0014 348° North  Level Estimated
09:14AM 27.7019 118.0014 348° North  Level Estimated